createdAt,value
2017-12-14T00:00:54.524Z,3.40
2017-12-14T00:03:22.122Z,3.40
2017-12-14T00:05:49.544Z,3.40
2017-12-14T00:08:17.730Z,3.40
2017-12-14T00:10:45.158Z,3.40
2017-12-14T00:13:12.590Z,3.40
2017-12-14T00:15:40.131Z,3.40
2017-12-14T00:18:07.560Z,3.40
2017-12-14T00:20:34.989Z,3.40
2017-12-14T00:23:03.190Z,3.40
2017-12-14T00:25:30.782Z,3.30
2017-12-14T00:27:58.238Z,3.40
2017-12-14T00:30:25.670Z,3.40
2017-12-14T00:32:53.150Z,3.40
2017-12-14T00:35:20.584Z,3.40
2017-12-14T00:37:48.037Z,3.40
2017-12-14T00:40:15.990Z,3.40
2017-12-14T00:42:43.424Z,3.30
2017-12-14T00:45:10.847Z,3.30
2017-12-14T00:47:38.278Z,3.30
2017-12-14T00:50:05.705Z,3.30
2017-12-14T00:52:33.898Z,3.40
2017-12-14T00:55:01.338Z,3.40
2017-12-14T00:57:29.542Z,3.60
2017-12-14T00:59:56.972Z,3.50
2017-12-14T01:02:24.402Z,3.70
2017-12-14T01:04:51.840Z,3.70
2017-12-14T01:07:19.258Z,3.80
2017-12-14T01:09:46.686Z,3.80
2017-12-14T01:12:14.910Z,3.80
2017-12-14T01:14:42.333Z,3.70
2017-12-14T01:17:09.772Z,3.90
2017-12-14T01:19:37.975Z,3.90
2017-12-14T01:22:05.421Z,3.90
2017-12-14T01:24:32.915Z,4.00
2017-12-14T01:27:00.420Z,4.00
2017-12-14T01:29:27.826Z,4.00
2017-12-14T01:31:55.282Z,4.00
2017-12-14T01:34:22.714Z,3.90
2017-12-14T01:36:50.154Z,3.90
2017-12-14T01:39:17.577Z,3.90
2017-12-14T01:41:45.098Z,3.90
2017-12-14T01:44:12.545Z,3.90
2017-12-14T01:46:40.003Z,3.90
2017-12-14T01:49:07.437Z,3.90
2017-12-14T01:51:34.858Z,4.00
2017-12-14T01:54:02.286Z,3.90
2017-12-14T01:56:29.710Z,3.90
2017-12-14T01:58:57.188Z,3.80
2017-12-14T02:01:24.661Z,3.80
2017-12-14T02:03:52.075Z,3.80
2017-12-14T02:06:19.506Z,3.80
2017-12-14T02:08:47.711Z,3.70
2017-12-14T02:11:15.200Z,3.70
2017-12-14T02:13:42.663Z,3.80
2017-12-14T02:16:10.161Z,3.80
2017-12-14T02:18:37.619Z,3.80
2017-12-14T02:21:05.816Z,3.90
2017-12-14T02:23:33.296Z,3.90
2017-12-14T02:26:00.747Z,4.00
2017-12-14T02:28:28.179Z,4.00
2017-12-14T02:30:55.613Z,4.00
2017-12-14T02:33:23.043Z,4.00
2017-12-14T02:35:50.462Z,4.00
2017-12-14T02:38:17.922Z,4.10
2017-12-14T02:40:45.392Z,4.10
2017-12-14T02:43:12.819Z,4.20
2017-12-14T02:45:40.252Z,4.20
2017-12-14T02:48:07.674Z,4.20
2017-12-14T02:50:35.203Z,4.20
2017-12-14T02:53:02.631Z,4.30
2017-12-14T02:55:30.056Z,4.30
2017-12-14T02:57:58.253Z,4.30
2017-12-14T03:00:25.686Z,4.30
2017-12-14T03:02:53.887Z,4.30
2017-12-14T03:05:21.310Z,4.30
2017-12-14T03:07:48.832Z,4.30
2017-12-14T03:10:17.088Z,4.30
2017-12-14T03:12:44.518Z,4.30
2017-12-14T03:15:12.022Z,4.40
2017-12-14T03:17:39.462Z,4.40
2017-12-14T03:20:06.946Z,4.40
2017-12-14T03:22:34.395Z,4.40
2017-12-14T03:25:01.829Z,4.40
2017-12-14T03:27:29.255Z,4.40
2017-12-14T03:29:57.470Z,4.30
2017-12-14T03:32:24.902Z,4.30
2017-12-14T03:34:52.331Z,4.30
2017-12-14T03:37:20.539Z,4.40
2017-12-14T03:39:47.974Z,4.30
2017-12-14T03:42:15.416Z,4.40
2017-12-14T03:44:43.615Z,4.40
2017-12-14T03:47:11.041Z,4.40
2017-12-14T03:49:39.270Z,4.50
2017-12-14T03:52:06.726Z,4.40
2017-12-14T03:54:34.182Z,4.40
2017-12-14T03:57:01.653Z,4.50
2017-12-14T03:59:29.094Z,4.50
2017-12-14T04:01:56.534Z,4.50
2017-12-14T04:04:24.030Z,4.50
2017-12-14T04:06:51.466Z,4.50
2017-12-14T04:09:18.903Z,4.50
2017-12-14T04:11:46.379Z,4.50
2017-12-14T04:14:13.835Z,4.50
2017-12-14T04:16:41.291Z,4.50
2017-12-14T04:19:08.747Z,4.50
2017-12-14T04:21:36.318Z,4.50
2017-12-14T04:24:03.766Z,4.50
2017-12-14T04:26:31.202Z,4.50
2017-12-14T04:28:58.653Z,4.50
2017-12-14T04:31:26.062Z,4.60
2017-12-14T04:33:53.582Z,4.60
2017-12-14T04:36:21.028Z,4.60
2017-12-14T04:38:48.455Z,4.60
2017-12-14T04:41:16.645Z,4.50
2017-12-14T04:43:44.234Z,4.50
2017-12-14T04:46:11.662Z,4.50
2017-12-14T04:48:39.086Z,4.40
2017-12-14T04:51:07.336Z,4.30
2017-12-14T04:53:34.774Z,4.30
2017-12-14T04:56:02.239Z,4.30
2017-12-14T04:58:29.701Z,4.30
2017-12-14T05:00:57.142Z,4.30
2017-12-14T05:03:24.602Z,4.30
2017-12-14T05:05:52.038Z,4.30
2017-12-14T05:08:19.501Z,4.30
2017-12-14T05:10:46.974Z,4.30
2017-12-14T05:13:14.575Z,4.30
2017-12-14T05:15:41.986Z,4.20
2017-12-14T05:18:09.424Z,4.20
2017-12-14T05:20:36.902Z,4.20
2017-12-14T05:23:04.340Z,4.20
2017-12-14T05:25:31.817Z,4.20
2017-12-14T05:27:59.362Z,4.10
2017-12-14T05:30:26.915Z,4.10
2017-12-14T05:32:54.347Z,4.10
2017-12-14T05:35:21.765Z,4.10
2017-12-14T05:37:49.208Z,4.10
2017-12-14T05:40:17.323Z,4.10
2017-12-14T05:42:44.758Z,4.20
2017-12-14T05:45:12.301Z,4.20
2017-12-14T05:47:39.737Z,4.10
2017-12-14T05:50:07.181Z,4.10
2017-12-14T05:52:34.650Z,4.10
2017-12-14T05:55:02.130Z,4.10
2017-12-14T05:57:29.669Z,4.10
2017-12-14T05:59:57.097Z,4.10
2017-12-14T06:02:24.523Z,4.00
2017-12-14T06:04:52.814Z,4.00
2017-12-14T06:07:20.199Z,4.00
2017-12-14T06:09:47.628Z,4.00
2017-12-14T06:12:15.122Z,4.00
2017-12-14T06:14:42.579Z,4.00
2017-12-14T06:17:10.016Z,4.00
2017-12-14T06:19:37.455Z,4.00
2017-12-14T06:22:04.947Z,4.00
2017-12-14T06:24:32.418Z,4.00
2017-12-14T06:27:00.043Z,3.90
2017-12-14T06:29:27.515Z,4.00
2017-12-14T06:31:54.975Z,4.00
2017-12-14T06:34:22.421Z,4.00
2017-12-14T06:36:49.872Z,4.00
2017-12-14T06:39:17.351Z,4.00
2017-12-14T06:41:44.803Z,4.00
2017-12-14T06:44:12.255Z,4.10
2017-12-14T06:46:39.730Z,4.10
2017-12-14T06:49:07.151Z,4.10
2017-12-14T06:51:34.594Z,4.10
2017-12-14T06:54:02.083Z,4.10
2017-12-14T06:56:29.529Z,4.10
2017-12-14T06:58:56.998Z,4.10
2017-12-14T07:01:24.429Z,4.10
2017-12-14T07:03:51.903Z,4.10
2017-12-14T07:06:19.339Z,4.10
2017-12-14T07:08:46.819Z,4.10
2017-12-14T07:11:14.286Z,4.10
2017-12-14T07:13:41.730Z,4.10
2017-12-14T07:16:09.171Z,4.20
2017-12-14T07:18:36.648Z,4.20
2017-12-14T07:21:04.117Z,4.20
2017-12-14T07:23:31.542Z,4.30
2017-12-14T07:25:59.017Z,4.30
2017-12-14T07:28:26.474Z,4.30
2017-12-14T07:30:53.907Z,4.40
2017-12-14T07:33:21.510Z,4.40
2017-12-14T07:35:48.944Z,4.40
2017-12-14T07:38:16.397Z,4.40
2017-12-14T07:40:43.853Z,4.50
2017-12-14T07:43:17.775Z,4.40
2017-12-14T07:46:05.946Z,4.50
2017-12-14T07:48:34.159Z,4.50
2017-12-14T07:51:01.648Z,4.50
2017-12-14T07:53:29.203Z,4.50
2017-12-14T07:55:56.647Z,4.50
2017-12-14T07:58:24.116Z,4.50
2017-12-14T08:00:51.550Z,4.50
2017-12-14T08:03:19.031Z,4.60
2017-12-14T08:05:46.604Z,4.60
2017-12-14T08:08:14.083Z,4.60
2017-12-14T08:10:42.278Z,4.70
2017-12-14T08:13:09.779Z,4.60
2017-12-14T08:15:37.424Z,4.70
2017-12-14T08:18:04.835Z,4.60
2017-12-14T08:20:33.039Z,4.60
2017-12-14T08:23:00.499Z,4.60
2017-12-14T08:25:27.936Z,4.70
2017-12-14T08:27:55.383Z,4.70
2017-12-14T08:30:23.582Z,4.70
2017-12-14T08:32:51.029Z,4.60
2017-12-14T08:35:18.601Z,4.60
2017-12-14T08:37:46.487Z,4.60
2017-12-14T08:40:13.915Z,4.70
2017-12-14T08:42:42.262Z,4.70
2017-12-14T08:45:10.464Z,4.70
2017-12-14T08:47:37.955Z,4.70
2017-12-14T08:50:05.408Z,4.70
2017-12-14T08:52:32.859Z,4.70
2017-12-14T08:55:00.407Z,4.70
2017-12-14T08:57:27.890Z,4.70
2017-12-14T08:59:55.417Z,4.60
2017-12-14T09:02:22.839Z,4.70
2017-12-14T09:04:51.182Z,4.70
2017-12-14T09:07:18.641Z,4.60
2017-12-14T09:09:46.204Z,4.60
2017-12-14T09:12:13.747Z,4.60
2017-12-14T09:14:41.321Z,4.60
2017-12-14T09:17:08.748Z,4.60
2017-12-14T09:19:36.177Z,4.60
2017-12-14T09:22:03.622Z,4.60
2017-12-14T09:24:31.825Z,4.60
2017-12-14T09:26:59.326Z,4.50
2017-12-14T09:29:26.751Z,4.50
2017-12-14T09:31:54.190Z,4.60
2017-12-14T09:34:21.663Z,4.60
2017-12-14T09:36:49.074Z,4.70
2017-12-14T09:39:16.579Z,4.70
2017-12-14T09:41:44.031Z,4.60
2017-12-14T09:44:11.546Z,4.60
2017-12-14T09:46:38.976Z,4.70
2017-12-14T09:49:07.170Z,4.70
2017-12-14T09:51:34.607Z,4.70
2017-12-14T09:54:02.185Z,4.70
2017-12-14T09:56:29.570Z,4.70
2017-12-14T09:58:57.064Z,4.70
2017-12-14T10:01:24.494Z,4.80
2017-12-14T10:03:51.939Z,4.80
2017-12-14T10:06:19.385Z,4.80
2017-12-14T10:08:46.878Z,4.80
2017-12-14T10:11:14.410Z,4.80
2017-12-14T10:13:42.779Z,4.80
2017-12-14T10:16:10.304Z,4.80
2017-12-14T10:18:37.743Z,4.80
2017-12-14T10:21:05.179Z,4.80
2017-12-14T10:23:32.618Z,4.90
2017-12-14T10:26:00.050Z,4.80
2017-12-14T10:28:28.270Z,4.70
2017-12-14T10:30:55.698Z,4.70
2017-12-14T10:33:23.114Z,4.70
2017-12-14T10:35:51.318Z,4.70
2017-12-14T10:38:18.770Z,4.60
2017-12-14T10:40:46.194Z,4.60
2017-12-14T10:43:13.647Z,4.60
2017-12-14T10:45:41.196Z,4.50
2017-12-14T10:48:08.635Z,4.50
2017-12-14T10:50:36.064Z,4.50
2017-12-14T10:53:03.506Z,4.50
2017-12-14T10:55:31.718Z,4.40
2017-12-14T10:57:59.148Z,4.40
2017-12-14T11:00:32.456Z,4.40
2017-12-14T11:02:59.863Z,4.40
2017-12-14T11:05:27.720Z,4.40
2017-12-14T11:07:55.149Z,4.40
2017-12-14T11:10:22.606Z,4.30
2017-12-14T11:12:50.041Z,4.20
2017-12-14T11:15:17.462Z,4.10
2017-12-14T11:17:44.890Z,4.00
2017-12-14T11:20:12.718Z,4.10
2017-12-14T11:22:41.331Z,4.20
2017-12-14T11:25:08.766Z,4.10
2017-12-14T11:27:36.970Z,4.00
2017-12-14T11:30:04.398Z,4.00
2017-12-14T11:32:31.827Z,4.00
2017-12-14T11:34:59.342Z,4.10
2017-12-14T11:37:26.775Z,4.00
2017-12-14T11:39:54.206Z,4.00
2017-12-14T11:42:22.447Z,4.00
2017-12-14T11:44:49.883Z,3.90
2017-12-14T11:47:17.374Z,4.00
2017-12-14T11:49:44.821Z,4.00
2017-12-14T11:52:12.265Z,4.00
2017-12-14T11:54:39.684Z,4.10
2017-12-14T11:57:07.882Z,4.20
2017-12-14T11:59:35.298Z,4.20
2017-12-14T12:02:02.730Z,4.30
2017-12-14T12:04:30.161Z,4.20
2017-12-14T12:06:57.655Z,4.20
2017-12-14T12:09:25.080Z,4.20
2017-12-14T12:11:58.320Z,4.20
2017-12-14T12:14:25.767Z,4.20
2017-12-14T12:16:53.211Z,4.30
2017-12-14T12:19:20.647Z,4.30
2017-12-14T12:21:48.119Z,4.30
2017-12-14T12:24:15.553Z,4.20
2017-12-14T12:26:42.992Z,4.30
2017-12-14T12:29:10.422Z,4.30
2017-12-14T12:31:38.620Z,4.20
2017-12-14T12:34:06.034Z,4.20
2017-12-14T12:36:33.458Z,4.20
2017-12-14T12:39:00.917Z,4.30
2017-12-14T12:41:28.378Z,4.20
2017-12-14T12:43:55.807Z,4.30
2017-12-14T12:46:23.303Z,4.30
2017-12-14T12:48:50.739Z,4.30
2017-12-14T12:51:18.233Z,4.30
2017-12-14T12:53:45.691Z,4.40
2017-12-14T12:56:13.209Z,4.40
2017-12-14T12:58:40.671Z,4.40
2017-12-14T13:01:08.131Z,4.40
2017-12-14T13:03:35.712Z,4.30
2017-12-14T13:06:03.144Z,4.30
2017-12-14T13:08:30.688Z,4.30
2017-12-14T13:10:58.128Z,4.40
2017-12-14T13:13:26.294Z,4.40
2017-12-14T13:15:53.726Z,4.40
2017-12-14T13:18:22.058Z,4.60
2017-12-14T13:20:49.478Z,4.50
2017-12-14T13:23:16.940Z,4.50
2017-12-14T13:25:44.540Z,4.60
2017-12-14T13:28:11.967Z,4.50
2017-12-14T13:30:39.562Z,4.60
2017-12-14T13:33:07.769Z,4.60
2017-12-14T13:35:35.305Z,4.60
2017-12-14T13:38:02.735Z,4.60
2017-12-14T13:40:30.203Z,4.70
2017-12-14T13:42:57.663Z,4.60
2017-12-14T13:45:25.105Z,4.60
2017-12-14T13:47:52.518Z,4.50
2017-12-14T13:50:20.037Z,4.40
2017-12-14T13:52:47.473Z,4.50
2017-12-14T13:55:15.146Z,4.60
2017-12-14T13:57:42.602Z,4.50
2017-12-14T14:00:10.046Z,4.50
2017-12-14T14:02:37.607Z,4.50
2017-12-14T14:05:05.250Z,4.50
2017-12-14T14:07:32.666Z,4.50
2017-12-14T14:10:00.899Z,4.50
2017-12-14T14:12:28.331Z,4.40
2017-12-14T14:14:56.264Z,4.40
2017-12-14T14:17:24.494Z,4.40
2017-12-14T14:19:51.954Z,4.40
2017-12-14T14:22:19.408Z,4.50
2017-12-14T14:24:46.845Z,4.50
2017-12-14T14:27:14.262Z,4.30
2017-12-14T14:29:42.458Z,4.20
2017-12-14T14:32:10.627Z,4.20
2017-12-14T14:34:38.835Z,4.10
2017-12-14T14:37:06.250Z,4.10
2017-12-14T14:39:33.741Z,4.10
2017-12-14T14:42:01.187Z,4.20
2017-12-14T14:44:29.644Z,4.20
2017-12-14T14:46:57.846Z,4.40
2017-12-14T14:49:25.272Z,4.30
2017-12-14T14:51:52.713Z,4.40
2017-12-14T14:54:20.124Z,4.50
2017-12-14T14:56:47.559Z,4.50
2017-12-14T14:59:14.994Z,4.50
2017-12-14T15:01:43.186Z,4.50
2017-12-14T15:04:10.661Z,4.50
2017-12-14T15:06:38.143Z,4.50
2017-12-14T15:09:05.683Z,4.50
2017-12-14T15:11:33.111Z,4.40
2017-12-14T15:14:00.563Z,4.50
2017-12-14T15:16:28.062Z,4.50
2017-12-14T15:18:55.490Z,4.50
2017-12-14T15:21:23.049Z,4.40
2017-12-14T15:23:50.526Z,4.40
2017-12-14T15:26:18.188Z,4.40
2017-12-14T15:28:45.756Z,4.50
2017-12-14T15:31:13.195Z,4.40
2017-12-14T15:33:40.638Z,4.50
2017-12-14T15:36:08.062Z,4.50
2017-12-14T15:38:35.568Z,4.50
2017-12-14T15:41:02.994Z,4.50
2017-12-14T15:43:30.474Z,4.50
2017-12-14T15:45:57.939Z,4.50
2017-12-14T15:51:15.990Z,4.60
2017-12-14T15:53:43.545Z,4.60
2017-12-14T15:56:11.020Z,4.60
2017-12-14T15:58:38.465Z,4.60
2017-12-14T16:01:05.913Z,4.60
2017-12-14T16:03:33.352Z,4.50
2017-12-14T16:06:00.809Z,4.50
2017-12-14T16:08:28.336Z,4.60
2017-12-14T16:10:56.578Z,4.60
2017-12-14T16:13:24.012Z,4.50
2017-12-14T16:15:51.446Z,4.60
2017-12-14T16:18:19.033Z,4.50
2017-12-14T16:20:46.477Z,4.50
2017-12-14T16:23:13.934Z,4.40
2017-12-14T16:25:41.342Z,4.40
2017-12-14T16:28:09.534Z,4.30
2017-12-14T16:30:37.034Z,4.30
2017-12-14T16:33:04.457Z,4.20
2017-12-14T16:35:31.895Z,4.20
2017-12-14T16:38:00.093Z,4.10
2017-12-14T16:40:27.832Z,4.10
2017-12-14T16:42:55.253Z,4.10
2017-12-14T16:45:22.819Z,4.10
2017-12-14T16:47:50.251Z,4.10
2017-12-14T16:50:17.788Z,4.10
2017-12-14T16:52:45.256Z,4.10
2017-12-14T16:55:12.805Z,4.10
2017-12-14T16:57:40.222Z,4.00
2017-12-14T17:00:07.842Z,4.10
2017-12-14T17:02:35.261Z,4.10
2017-12-14T17:05:03.500Z,4.20
2017-12-14T17:07:31.042Z,4.20
2017-12-14T17:09:58.506Z,4.20
2017-12-14T17:12:25.962Z,4.30
2017-12-14T17:14:53.399Z,4.30
2017-12-14T17:17:20.838Z,4.30
2017-12-14T17:19:48.275Z,4.30
2017-12-14T17:22:16.503Z,4.40
2017-12-14T17:24:43.959Z,4.40
2017-12-14T17:27:11.426Z,4.30
2017-12-14T17:29:38.874Z,4.40
2017-12-14T17:32:06.332Z,4.40
2017-12-14T17:34:33.760Z,4.60
2017-12-14T17:37:01.247Z,4.60
2017-12-14T17:39:28.878Z,4.60
2017-12-14T17:41:56.377Z,4.70
2017-12-14T17:44:23.996Z,4.70
2017-12-14T17:46:51.438Z,4.70
2017-12-14T17:49:18.938Z,4.70
2017-12-14T17:51:46.396Z,4.70
2017-12-14T17:54:13.814Z,4.70
2017-12-14T17:56:41.295Z,4.70
2017-12-14T17:59:08.722Z,4.60
2017-12-14T18:01:36.214Z,4.60
2017-12-14T18:04:03.658Z,4.50
2017-12-14T18:06:31.134Z,4.60
2017-12-14T18:08:58.738Z,4.60
2017-12-14T18:11:26.185Z,4.60
2017-12-14T18:13:54.391Z,4.60
2017-12-14T18:16:21.950Z,4.60
2017-12-14T18:18:49.422Z,4.60
2017-12-14T18:21:16.887Z,4.60
2017-12-14T18:23:44.331Z,4.70
2017-12-14T18:26:11.815Z,4.60
2017-12-14T18:28:39.367Z,4.60
2017-12-14T18:31:06.824Z,4.60
2017-12-14T18:33:34.338Z,4.50
2017-12-14T18:36:01.909Z,4.50
2017-12-14T18:38:29.352Z,4.50
2017-12-14T18:40:56.797Z,4.40
2017-12-14T18:43:24.241Z,4.30
2017-12-14T18:45:52.655Z,4.30
2017-12-14T18:48:20.086Z,4.20
2017-12-14T18:50:48.299Z,4.20
2017-12-14T18:53:15.775Z,4.10
2017-12-14T18:55:43.324Z,4.10
2017-12-14T18:58:10.750Z,4.10
2017-12-14T19:00:38.193Z,4.00
2017-12-14T19:03:05.617Z,4.00
2017-12-14T19:05:33.833Z,3.90
2017-12-14T19:08:01.334Z,3.90
2017-12-14T19:10:28.770Z,3.90
2017-12-14T19:12:56.226Z,3.90
2017-12-14T19:15:23.670Z,3.90
2017-12-14T19:17:51.224Z,3.90
2017-12-14T19:20:18.665Z,3.90
2017-12-14T19:22:46.166Z,3.90
2017-12-14T19:25:13.610Z,3.90
2017-12-14T19:27:41.042Z,3.90
2017-12-14T19:30:08.479Z,3.90
2017-12-14T19:32:35.906Z,3.90
2017-12-14T19:35:04.107Z,3.80
2017-12-14T19:37:32.330Z,3.70
2017-12-14T19:39:59.778Z,3.70
2017-12-14T19:42:27.225Z,3.80
2017-12-14T19:44:54.686Z,3.80
2017-12-14T19:47:22.153Z,3.70
2017-12-14T19:49:49.625Z,3.70
2017-12-14T19:52:17.276Z,3.70
2017-12-14T19:54:44.825Z,3.70
2017-12-14T19:57:12.285Z,3.70
2017-12-14T19:59:39.739Z,3.70
2017-12-14T20:02:07.177Z,3.70
2017-12-14T20:04:34.651Z,3.70
2017-12-14T20:07:02.194Z,3.80
2017-12-14T20:09:29.601Z,3.80
2017-12-14T20:11:57.810Z,4.00
2017-12-14T20:14:25.244Z,3.90
2017-12-14T20:16:53.456Z,4.00
2017-12-14T20:19:20.883Z,3.90
2017-12-14T20:21:48.391Z,3.90
2017-12-14T20:24:15.838Z,4.00
2017-12-14T20:26:43.261Z,4.00
2017-12-14T20:29:10.690Z,4.00
2017-12-14T20:31:38.893Z,4.00
2017-12-14T20:34:06.318Z,3.90
2017-12-14T20:36:34.567Z,4.00
2017-12-14T20:39:02.022Z,4.00
2017-12-14T20:41:29.459Z,4.10
2017-12-14T20:43:57.036Z,4.00
2017-12-14T20:46:24.478Z,4.00
2017-12-14T20:48:51.924Z,4.00
2017-12-14T20:51:19.366Z,4.00
2017-12-14T20:53:46.818Z,4.00
2017-12-14T20:56:14.263Z,4.00
2017-12-14T20:58:41.787Z,3.90
2017-12-14T21:01:09.331Z,3.90
2017-12-14T21:03:36.766Z,3.90
2017-12-14T21:06:04.242Z,3.90
2017-12-14T21:08:31.799Z,3.90
2017-12-14T21:10:59.246Z,3.90
2017-12-14T21:13:26.788Z,3.90
2017-12-14T21:15:54.227Z,3.90
2017-12-14T21:18:21.818Z,3.90
2017-12-14T21:20:49.270Z,4.00
2017-12-14T21:23:16.730Z,4.00
2017-12-14T21:25:44.187Z,4.10
2017-12-14T21:28:11.624Z,4.20
2017-12-14T21:30:39.134Z,4.20
2017-12-14T21:33:06.575Z,4.30
2017-12-14T21:35:34.135Z,4.30
2017-12-14T21:38:01.578Z,4.30
2017-12-14T21:40:29.046Z,4.30
2017-12-14T21:42:56.490Z,4.20
2017-12-14T21:45:23.942Z,4.30
2017-12-14T21:47:51.439Z,4.30
2017-12-14T21:50:18.979Z,4.40
2017-12-14T21:52:46.539Z,4.30
2017-12-14T21:55:13.986Z,4.30
2017-12-14T21:57:41.448Z,4.40
2017-12-14T22:00:08.890Z,4.30
2017-12-14T22:02:36.364Z,4.30
2017-12-14T22:05:03.817Z,4.40
2017-12-14T22:07:31.256Z,4.40
2017-12-14T22:09:58.830Z,4.30
2017-12-14T22:12:26.273Z,4.30
2017-12-14T22:14:53.708Z,4.30
2017-12-14T22:17:21.155Z,4.40
2017-12-14T22:19:48.602Z,4.30
2017-12-14T22:22:16.816Z,4.20
2017-12-14T22:24:44.491Z,4.20
2017-12-14T22:27:12.272Z,4.20
2017-12-14T22:29:39.702Z,4.30
2017-12-14T22:32:07.158Z,4.30
2017-12-14T22:34:34.613Z,4.40
2017-12-14T22:37:02.038Z,4.30
2017-12-14T22:39:29.492Z,4.40
2017-12-14T22:41:56.917Z,4.40
2017-12-14T22:44:24.358Z,4.50
2017-12-14T22:46:51.802Z,4.50
2017-12-14T22:49:19.255Z,4.60
2017-12-14T22:51:46.782Z,4.60
2017-12-14T22:54:14.343Z,4.50
2017-12-14T22:56:41.759Z,4.40
2017-12-14T22:59:09.293Z,4.50
2017-12-14T23:01:36.839Z,4.50
2017-12-14T23:04:04.274Z,4.40
2017-12-14T23:06:31.750Z,4.40
2017-12-14T23:08:59.188Z,4.50
2017-12-14T23:11:26.621Z,4.50
2017-12-14T23:13:54.066Z,4.60
2017-12-14T23:16:22.278Z,4.60
2017-12-14T23:18:49.756Z,4.60
2017-12-14T23:21:17.194Z,4.60
2017-12-14T23:23:44.679Z,4.70
2017-12-14T23:26:12.113Z,4.60
2017-12-14T23:28:39.546Z,4.70
2017-12-14T23:31:06.979Z,4.70
2017-12-14T23:33:35.187Z,4.90
2017-12-14T23:36:02.626Z,4.80
2017-12-14T23:38:30.074Z,4.90
2017-12-14T23:40:57.515Z,4.90
2017-12-14T23:43:25.726Z,4.70
2017-12-14T23:45:53.167Z,4.70
2017-12-14T23:48:20.602Z,4.70
2017-12-14T23:50:48.794Z,4.70
2017-12-14T23:53:16.293Z,4.60
2017-12-14T23:55:43.755Z,4.70
2017-12-14T23:58:11.298Z,4.70
